createdAt,value
2022-12-24T00:00:44.672Z,999.43
2022-12-24T00:01:44.584Z,999.41
2022-12-24T00:02:44.723Z,999.43
2022-12-24T00:03:44.756Z,999.43
2022-12-24T00:04:44.543Z,999.38
2022-12-24T00:05:44.543Z,999.35
2022-12-24T00:06:44.532Z,999.41
2022-12-24T00:07:44.514Z,999.36
2022-12-24T00:08:44.661Z,999.39
2022-12-24T00:09:44.610Z,999.41
2022-12-24T00:10:44.501Z,999.40
2022-12-24T00:11:44.489Z,999.44
2022-12-24T00:12:44.474Z,999.43
2022-12-24T00:13:44.468Z,999.38
2022-12-24T00:14:44.469Z,999.38
2022-12-24T00:15:44.685Z,999.39
2022-12-24T00:16:44.481Z,999.37
2022-12-24T00:17:44.443Z,999.40
2022-12-24T00:18:46.549Z,999.42
2022-12-24T00:19:44.431Z,999.54
2022-12-24T00:20:44.452Z,999.53
2022-12-24T00:21:44.409Z,999.51
2022-12-24T00:22:44.369Z,999.47
2022-12-24T00:23:44.417Z,999.49
2022-12-24T00:24:44.371Z,999.51
2022-12-24T00:25:44.358Z,999.49
2022-12-24T00:26:44.333Z,999.50
2022-12-24T00:27:44.343Z,999.52
2022-12-24T00:28:44.411Z,999.59
2022-12-24T00:29:44.434Z,999.61
2022-12-24T00:30:44.376Z,999.68
2022-12-24T00:31:44.274Z,999.67
2022-12-24T00:32:44.307Z,999.70
2022-12-24T00:33:44.299Z,999.70
2022-12-24T00:34:44.310Z,999.71
2022-12-24T00:35:44.257Z,999.75
2022-12-24T00:36:44.307Z,999.76
2022-12-24T00:37:44.231Z,999.78
2022-12-24T00:38:44.240Z,999.79
2022-12-24T00:39:44.228Z,999.78
2022-12-24T00:40:44.203Z,999.77
2022-12-24T00:41:44.288Z,999.76
2022-12-24T00:42:44.241Z,999.77
2022-12-24T00:43:44.152Z,999.76
2022-12-24T00:44:44.154Z,999.75
2022-12-24T00:45:44.229Z,999.75
2022-12-24T00:46:44.259Z,999.71
2022-12-24T00:47:44.140Z,999.74
2022-12-24T00:48:44.134Z,999.78
2022-12-24T00:49:44.085Z,999.79
2022-12-24T00:50:44.219Z,999.82
2022-12-24T00:51:44.091Z,999.77
2022-12-24T00:52:44.144Z,999.73
2022-12-24T00:53:44.079Z,999.77
2022-12-24T00:54:44.101Z,999.80
2022-12-24T00:55:44.028Z,999.79
2022-12-24T00:56:44.043Z,999.83
2022-12-24T00:57:44.027Z,999.83
2022-12-24T00:58:44.004Z,999.81
2022-12-24T00:59:44.032Z,999.80
2022-12-24T01:00:43.982Z,999.85
2022-12-24T01:01:44.263Z,999.81
2022-12-24T01:02:44.258Z,999.89
2022-12-24T01:03:44.034Z,999.87
2022-12-24T01:04:43.963Z,999.88
2022-12-24T01:05:43.959Z,999.90
2022-12-24T01:06:43.954Z,999.93
2022-12-24T01:07:44.179Z,999.95
2022-12-24T01:08:43.915Z,1000.00
2022-12-24T01:09:43.893Z,1000.00
2022-12-24T01:10:43.900Z,1000.02
2022-12-24T01:11:43.874Z,1000.00
2022-12-24T01:12:43.872Z,1000.01
2022-12-24T01:13:43.871Z,1000.03
2022-12-24T01:14:43.854Z,1000.02
2022-12-24T01:15:43.938Z,1000.08
2022-12-24T01:16:43.830Z,1000.09
2022-12-24T01:17:43.846Z,1000.11
2022-12-24T01:18:43.809Z,1000.11
2022-12-24T01:19:43.819Z,1000.16
2022-12-24T01:20:43.785Z,1000.17
2022-12-24T01:21:43.768Z,1000.17
2022-12-24T01:22:43.783Z,1000.17
2022-12-24T01:23:43.763Z,1000.18
2022-12-24T01:24:43.752Z,1000.21
2022-12-24T01:25:43.724Z,1000.25
2022-12-24T01:26:43.755Z,1000.28
2022-12-24T01:27:43.739Z,1000.30
2022-12-24T01:28:43.726Z,1000.34
2022-12-24T01:29:43.697Z,1000.33
2022-12-24T01:30:43.734Z,1000.36
2022-12-24T01:31:43.739Z,1000.35
2022-12-24T01:32:43.663Z,1000.36
2022-12-24T01:33:43.678Z,1000.39
2022-12-24T01:34:43.643Z,1000.41
2022-12-24T01:35:43.629Z,1000.46
2022-12-24T01:36:43.649Z,1000.50
2022-12-24T01:37:43.611Z,1000.53
2022-12-24T01:38:43.672Z,1000.55
2022-12-24T01:39:43.584Z,1000.55
2022-12-24T01:40:43.585Z,1000.54
2022-12-24T01:41:43.571Z,1000.54
2022-12-24T01:42:44.080Z,1000.55
2022-12-24T01:43:43.581Z,1000.56
2022-12-24T01:44:43.543Z,1000.57
2022-12-24T01:45:43.579Z,1000.57
2022-12-24T01:46:43.590Z,1000.59
2022-12-24T01:47:43.519Z,1000.64
2022-12-24T01:48:43.496Z,1000.66
2022-12-24T01:49:43.515Z,1000.69
2022-12-24T01:50:43.487Z,1000.72
2022-12-24T01:51:43.461Z,1000.76
2022-12-24T01:52:43.459Z,1000.80
2022-12-24T01:53:43.445Z,1000.86
2022-12-24T01:54:43.474Z,1000.88
2022-12-24T01:55:43.434Z,1000.93
2022-12-24T01:56:43.422Z,1000.94
2022-12-24T01:57:43.438Z,1000.93
2022-12-24T01:58:43.400Z,1000.93
2022-12-24T01:59:43.388Z,1000.96
2022-12-24T02:00:43.385Z,1000.96
2022-12-24T02:01:43.432Z,1000.96
2022-12-24T02:02:43.508Z,1000.97
2022-12-24T02:03:43.451Z,1000.91
2022-12-24T02:04:43.340Z,1000.96
2022-12-24T02:05:43.335Z,1001.00
2022-12-24T02:06:43.327Z,1001.03
2022-12-24T02:07:43.332Z,1001.09
2022-12-24T02:08:43.309Z,1001.11
2022-12-24T02:09:43.286Z,1001.10
2022-12-24T02:10:43.308Z,1001.11
2022-12-24T02:11:43.273Z,1001.15
2022-12-24T02:12:43.276Z,1001.16
2022-12-24T02:13:43.249Z,1001.16
2022-12-24T02:14:43.242Z,1001.17
2022-12-24T02:15:43.232Z,1001.19
2022-12-24T02:16:43.336Z,1001.18
2022-12-24T02:17:43.220Z,1001.18
2022-12-24T02:18:43.246Z,1001.17
2022-12-24T02:19:43.212Z,1001.16
2022-12-24T02:20:43.188Z,1001.17
2022-12-24T02:21:43.163Z,1001.18
2022-12-24T02:22:43.157Z,1001.20
2022-12-24T02:23:43.152Z,1001.20
2022-12-24T02:24:43.153Z,1001.22
2022-12-24T02:25:43.146Z,1001.21
2022-12-24T02:26:43.117Z,1001.21
2022-12-24T02:27:43.109Z,1001.22
2022-12-24T02:28:43.091Z,1001.22
2022-12-24T02:29:43.081Z,1001.22
2022-12-24T02:30:43.091Z,1001.27
2022-12-24T02:31:43.232Z,1001.23
2022-12-24T02:32:43.051Z,1001.28
2022-12-24T02:33:43.043Z,1001.26
2022-12-24T02:34:43.041Z,1001.24
2022-12-24T02:35:43.062Z,1001.24
2022-12-24T02:36:43.016Z,1001.25
2022-12-24T02:37:43.023Z,1001.17
2022-12-24T02:38:43.052Z,1001.19
2022-12-24T02:39:42.975Z,1001.21
2022-12-24T02:40:43.007Z,1001.27
2022-12-24T02:41:42.960Z,1001.30
2022-12-24T02:42:42.966Z,1001.33
2022-12-24T02:43:42.962Z,1001.30
2022-12-24T02:44:42.942Z,1001.32
2022-12-24T02:45:42.973Z,1001.38
2022-12-24T02:46:42.952Z,1001.39
2022-12-24T02:47:42.926Z,1001.43
2022-12-24T02:48:42.894Z,1001.47
2022-12-24T02:49:42.898Z,1001.50
2022-12-24T02:50:42.904Z,1001.53
2022-12-24T02:51:42.866Z,1001.59
2022-12-24T02:52:42.855Z,1001.61
2022-12-24T02:53:42.852Z,1001.62
2022-12-24T02:54:42.842Z,1001.63
2022-12-24T02:55:42.839Z,1001.64
2022-12-24T02:56:42.811Z,1001.70
2022-12-24T02:57:42.808Z,1001.70
2022-12-24T02:58:42.792Z,1001.71
2022-12-24T02:59:42.799Z,1001.72
2022-12-24T03:00:42.803Z,1001.74
2022-12-24T03:01:42.957Z,1001.72
2022-12-24T03:02:42.832Z,1001.73
2022-12-24T03:03:42.750Z,1001.74
2022-12-24T03:04:42.741Z,1001.77
2022-12-24T03:05:42.758Z,1001.77
2022-12-24T03:06:42.722Z,1001.79
2022-12-24T03:07:42.708Z,1001.78
2022-12-24T03:08:42.702Z,1001.79
2022-12-24T03:09:42.679Z,1001.80
2022-12-24T03:10:42.700Z,1001.77
2022-12-24T03:11:42.660Z,1001.75
2022-12-24T03:12:42.688Z,1001.72
2022-12-24T03:13:42.651Z,1001.75
2022-12-24T03:14:42.634Z,1001.73
2022-12-24T03:15:42.618Z,1001.76
2022-12-24T03:16:42.665Z,1001.76
2022-12-24T03:17:42.627Z,1001.76
2022-12-24T03:18:42.609Z,1001.79
2022-12-24T03:19:42.573Z,1001.78
2022-12-24T03:20:42.579Z,1001.80
2022-12-24T03:21:42.637Z,1001.85
2022-12-24T03:22:42.558Z,1001.84
2022-12-24T03:23:42.557Z,1001.83
2022-12-24T03:24:42.536Z,1001.83
2022-12-24T03:25:42.524Z,1001.81
2022-12-24T03:26:42.514Z,1001.79
2022-12-24T03:27:42.522Z,1001.83
2022-12-24T03:28:42.505Z,1001.83
2022-12-24T03:29:42.490Z,1001.87
2022-12-24T03:30:42.487Z,1001.90
2022-12-24T03:31:42.506Z,1001.91
2022-12-24T03:32:42.471Z,1001.90
2022-12-24T03:33:42.438Z,1001.89
2022-12-24T03:34:42.438Z,1001.90
2022-12-24T03:35:42.422Z,1001.93
2022-12-24T03:36:42.415Z,1001.93
2022-12-24T03:37:42.414Z,1001.99
2022-12-24T03:38:42.392Z,1002.04
2022-12-24T03:39:42.380Z,1002.05
2022-12-24T03:40:42.389Z,1002.08
2022-12-24T03:41:42.366Z,1002.08
2022-12-24T03:42:42.379Z,1002.08
2022-12-24T03:43:42.335Z,1002.10
2022-12-24T03:44:42.354Z,1002.10
2022-12-24T03:45:42.369Z,1002.09
2022-12-24T03:46:42.323Z,1002.11
2022-12-24T03:47:42.293Z,1002.11
2022-12-24T03:48:42.291Z,1002.08
2022-12-24T03:49:42.313Z,1002.05
2022-12-24T03:50:42.278Z,1002.04
2022-12-24T03:51:42.268Z,1002.08
2022-12-24T03:52:42.250Z,1002.14
2022-12-24T03:53:42.240Z,1002.14
2022-12-24T03:54:42.267Z,1002.15
2022-12-24T03:55:42.225Z,1002.18
2022-12-24T03:56:42.204Z,1002.22
2022-12-24T03:57:42.200Z,1002.24
2022-12-24T03:58:42.225Z,1002.25
2022-12-24T03:59:42.175Z,1002.25
2022-12-24T04:00:42.218Z,1002.22
2022-12-24T04:01:42.367Z,1002.21
2022-12-24T04:02:42.250Z,1002.23
2022-12-24T04:03:42.167Z,1002.24
2022-12-24T04:04:42.173Z,1002.25
2022-12-24T04:05:42.127Z,1002.28
2022-12-24T04:06:42.125Z,1002.28
2022-12-24T04:07:42.141Z,1002.28
2022-12-24T04:08:42.101Z,1002.31
2022-12-24T04:09:42.108Z,1002.30
2022-12-24T04:10:42.080Z,1002.32
2022-12-24T04:11:42.143Z,1002.34
2022-12-24T04:12:42.051Z,1002.33
2022-12-24T04:13:42.045Z,1002.32
2022-12-24T04:14:42.060Z,1002.33
2022-12-24T04:15:42.028Z,1002.33
2022-12-24T04:16:42.101Z,1002.35
2022-12-24T04:17:42.015Z,1002.37
2022-12-24T04:18:41.998Z,1002.39
2022-12-24T04:19:41.997Z,1002.40
2022-12-24T04:20:41.964Z,1002.44
2022-12-24T04:21:41.979Z,1002.42
2022-12-24T04:22:41.957Z,1002.42
2022-12-24T04:23:41.960Z,1002.42
2022-12-24T04:24:41.932Z,1002.41
2022-12-24T04:25:41.953Z,1002.43
2022-12-24T04:26:41.915Z,1002.42
2022-12-24T04:27:41.913Z,1002.41
2022-12-24T04:28:41.935Z,1002.41
2022-12-24T04:29:41.895Z,1002.40
2022-12-24T04:30:41.893Z,1002.40
2022-12-24T04:31:41.915Z,1002.37
2022-12-24T04:32:41.853Z,1002.33
2022-12-24T04:33:41.838Z,1002.34
2022-12-24T04:34:41.842Z,1002.38
2022-12-24T04:35:41.842Z,1002.40
2022-12-24T04:36:41.811Z,1002.37
2022-12-24T04:37:41.800Z,1002.39
2022-12-24T04:38:41.816Z,1002.36
2022-12-24T04:39:41.781Z,1002.41
2022-12-24T04:40:41.771Z,1002.40
2022-12-24T04:41:41.808Z,1002.43
2022-12-24T04:42:41.755Z,1002.42
2022-12-24T04:43:41.764Z,1002.42
2022-12-24T04:44:41.739Z,1002.39
2022-12-24T04:45:41.792Z,1002.37
2022-12-24T04:46:41.705Z,1002.36
2022-12-24T04:47:41.712Z,1002.38
2022-12-24T04:48:41.705Z,1002.41
2022-12-24T04:49:41.690Z,1002.47
2022-12-24T04:50:41.669Z,1002.53
2022-12-24T04:51:41.673Z,1002.57
2022-12-24T04:52:41.671Z,1002.61
2022-12-24T04:53:41.639Z,1002.62
2022-12-24T04:54:41.663Z,1002.63
2022-12-24T04:55:41.640Z,1002.62
2022-12-24T04:56:41.617Z,1002.62
2022-12-24T04:57:41.616Z,1002.61
2022-12-24T04:58:41.593Z,1002.59
2022-12-24T04:59:41.597Z,1002.57
2022-12-24T05:00:41.648Z,1002.53
2022-12-24T05:01:41.680Z,1002.53
2022-12-24T05:02:41.641Z,1002.54
2022-12-24T05:03:41.553Z,1002.55
2022-12-24T05:04:41.529Z,1002.53
2022-12-24T05:05:41.532Z,1002.53
2022-12-24T05:06:41.528Z,1002.53
2022-12-24T05:07:41.500Z,1002.55
2022-12-24T05:08:41.497Z,1002.58
2022-12-24T05:09:41.488Z,1002.59
2022-12-24T05:10:41.488Z,1002.60
2022-12-24T05:11:41.493Z,1002.59
2022-12-24T05:12:41.446Z,1002.59
2022-12-24T05:13:46.532Z,1002.60
2022-12-24T05:14:41.429Z,1002.62
2022-12-24T05:15:41.448Z,1002.64
2022-12-24T05:16:41.462Z,1002.66
2022-12-24T05:17:41.437Z,1002.68
2022-12-24T05:18:41.390Z,1002.71
2022-12-24T05:19:41.378Z,1002.74
2022-12-24T05:20:41.385Z,1002.75
2022-12-24T05:21:41.368Z,1002.77
2022-12-24T05:22:41.347Z,1002.79
2022-12-24T05:23:41.395Z,1002.83
2022-12-24T05:24:41.341Z,1002.84
2022-12-24T05:25:41.320Z,1002.83
2022-12-24T05:26:41.319Z,1002.81
2022-12-24T05:27:46.012Z,1002.80
2022-12-24T05:28:41.297Z,1002.74
2022-12-24T05:29:41.339Z,1002.73
2022-12-24T05:30:41.323Z,1002.74
2022-12-24T05:31:41.261Z,1002.75
2022-12-24T05:32:41.277Z,1002.74
2022-12-24T05:33:41.243Z,1002.74
2022-12-24T05:34:41.251Z,1002.74
2022-12-24T05:35:41.228Z,1002.75
2022-12-24T05:36:41.235Z,1002.75
2022-12-24T05:37:41.205Z,1002.73
2022-12-24T05:38:41.187Z,1002.72
2022-12-24T05:39:41.203Z,1002.70
2022-12-24T05:40:41.175Z,1002.70
2022-12-24T05:41:41.157Z,1002.73
2022-12-24T05:42:41.167Z,1002.72
2022-12-24T05:43:41.159Z,1002.74
2022-12-24T05:44:41.137Z,1002.75
2022-12-24T05:45:41.170Z,1002.75
2022-12-24T05:46:41.248Z,1002.74
2022-12-24T05:47:43.391Z,1002.71
2022-12-24T05:48:41.113Z,1002.72
2022-12-24T05:49:41.112Z,1002.70
2022-12-24T05:50:41.101Z,1002.69
2022-12-24T05:51:41.078Z,1002.69
2022-12-24T05:52:41.178Z,1002.68
2022-12-24T05:53:41.048Z,1002.68
2022-12-24T05:54:41.073Z,1002.70
2022-12-24T05:55:41.022Z,1002.73
2022-12-24T05:56:41.015Z,1002.75
2022-12-24T05:57:41.025Z,1002.77
2022-12-24T05:58:40.999Z,1002.80
2022-12-24T05:59:40.984Z,1002.84
2022-12-24T06:00:40.970Z,1002.85
2022-12-24T06:01:41.013Z,1002.84
2022-12-24T06:02:41.028Z,1002.85
2022-12-24T06:03:40.947Z,1002.89
2022-12-24T06:04:40.944Z,1002.91
2022-12-24T06:05:40.930Z,1002.90
2022-12-24T06:06:40.910Z,1002.86
2022-12-24T06:07:40.922Z,1002.83
2022-12-24T06:08:40.887Z,1002.83
2022-12-24T06:09:40.905Z,1002.83
2022-12-24T06:10:40.897Z,1002.83
2022-12-24T06:11:40.866Z,1002.83
2022-12-24T06:12:40.880Z,1002.83
2022-12-24T06:13:40.847Z,1002.80
2022-12-24T06:14:40.830Z,1002.78
2022-12-24T06:15:40.891Z,1002.79
2022-12-24T06:16:40.863Z,1002.80
2022-12-24T06:17:40.810Z,1002.85
2022-12-24T06:18:40.797Z,1002.90
2022-12-24T06:19:40.787Z,1002.89
2022-12-24T06:20:40.789Z,1002.90
2022-12-24T06:21:40.772Z,1002.91
2022-12-24T06:22:40.778Z,1002.94
2022-12-24T06:23:40.737Z,1002.94
2022-12-24T06:24:40.749Z,1002.94
2022-12-24T06:25:40.727Z,1002.95
2022-12-24T06:26:40.704Z,1002.98
2022-12-24T06:27:40.704Z,1002.97
2022-12-24T06:28:40.685Z,1002.97
2022-12-24T06:29:40.708Z,1002.98
2022-12-24T06:30:40.676Z,1002.97
2022-12-24T06:31:40.675Z,1002.96
2022-12-24T06:32:40.646Z,1002.94
2022-12-24T06:33:40.639Z,1002.96
2022-12-24T06:34:40.643Z,1002.99
2022-12-24T06:35:40.619Z,1003.01
2022-12-24T06:36:40.605Z,1003.02
2022-12-24T06:37:40.632Z,1003.06
2022-12-24T06:38:40.591Z,1003.07
2022-12-24T06:39:40.611Z,1003.10
2022-12-24T06:40:40.573Z,1003.08
2022-12-24T06:41:40.561Z,1003.07
2022-12-24T06:42:40.567Z,1003.06
2022-12-24T06:43:40.574Z,1003.08
2022-12-24T06:44:40.538Z,1003.11
2022-12-24T06:45:40.543Z,1003.13
2022-12-24T06:46:40.588Z,1003.12
2022-12-24T06:47:40.527Z,1003.12
2022-12-24T06:48:40.432Z,1003.08
2022-12-24T06:49:40.522Z,1003.10
2022-12-24T06:50:40.504Z,1003.14
2022-12-24T06:51:40.468Z,1003.14
2022-12-24T06:52:40.453Z,1003.15
2022-12-24T06:53:40.440Z,1003.19
2022-12-24T06:54:40.414Z,1003.19
2022-12-24T06:55:40.393Z,1003.22
2022-12-24T06:56:40.362Z,1003.22
2022-12-24T06:57:40.353Z,1003.23
2022-12-24T06:58:40.425Z,1003.32
2022-12-24T06:59:40.384Z,1003.37
2022-12-24T07:00:40.364Z,1003.33
2022-12-24T07:01:40.414Z,1003.34
2022-12-24T07:02:40.383Z,1003.30
2022-12-24T07:03:40.416Z,1003.31
2022-12-24T07:04:40.279Z,1003.33
2022-12-24T07:05:40.276Z,1003.35
2022-12-24T07:06:40.252Z,1003.33
2022-12-24T07:07:40.258Z,1003.34
2022-12-24T07:08:40.275Z,1003.37
2022-12-24T07:09:40.230Z,1003.36
2022-12-24T07:10:40.229Z,1003.37
2022-12-24T07:11:40.209Z,1003.39
2022-12-24T07:12:40.194Z,1003.43
2022-12-24T07:13:40.235Z,1003.43
2022-12-24T07:14:40.207Z,1003.44
2022-12-24T07:15:40.199Z,1003.45
2022-12-24T07:16:40.293Z,1003.49
2022-12-24T07:17:40.221Z,1003.51
2022-12-24T07:18:40.145Z,1003.56
2022-12-24T07:19:40.147Z,1003.58
2022-12-24T07:20:40.114Z,1003.59
2022-12-24T07:21:40.113Z,1003.56
2022-12-24T07:22:40.104Z,1003.56
2022-12-24T07:23:40.132Z,1003.56
2022-12-24T07:24:40.071Z,1003.59
2022-12-24T07:25:40.099Z,1003.62
2022-12-24T07:26:40.075Z,1003.67
2022-12-24T07:27:40.072Z,1003.68
2022-12-24T07:28:40.048Z,1003.71
2022-12-24T07:29:40.050Z,1003.71
2022-12-24T07:30:40.039Z,1003.72
2022-12-24T07:31:40.099Z,1003.76
2022-12-24T07:32:40.029Z,1003.81
2022-12-24T07:33:40.002Z,1003.77
2022-12-24T07:34:39.979Z,1003.75
2022-12-24T07:35:39.974Z,1003.75
2022-12-24T07:36:39.960Z,1003.78
2022-12-24T07:37:39.968Z,1003.83
2022-12-24T07:38:39.943Z,1003.85
2022-12-24T07:39:39.924Z,1003.85
2022-12-24T07:40:39.934Z,1003.86
2022-12-24T07:41:41.911Z,1003.85
2022-12-24T07:42:39.936Z,1003.87
2022-12-24T07:43:39.910Z,1003.87
2022-12-24T07:44:39.870Z,1003.90
2022-12-24T07:45:39.867Z,1003.90
2022-12-24T07:46:39.948Z,1003.90
2022-12-24T07:47:39.853Z,1003.87
2022-12-24T07:48:39.854Z,1003.91
2022-12-24T07:49:39.877Z,1003.94
2022-12-24T07:50:39.830Z,1003.97
2022-12-24T07:51:39.832Z,1003.96
2022-12-24T07:52:39.787Z,1003.95
2022-12-24T07:53:39.814Z,1003.96
2022-12-24T07:54:39.792Z,1004.00
2022-12-24T07:55:39.770Z,1004.02
2022-12-24T07:56:39.759Z,1004.04
2022-12-24T07:57:39.745Z,1004.05
2022-12-24T07:58:39.763Z,1004.06
2022-12-24T07:59:39.741Z,1004.09
2022-12-24T08:00:39.714Z,1004.10
2022-12-24T08:01:39.862Z,1004.09
2022-12-24T08:02:39.980Z,1004.11
2022-12-24T08:03:39.909Z,1004.14
2022-12-24T08:04:39.710Z,1004.15
2022-12-24T08:05:39.660Z,1004.15
2022-12-24T08:06:39.693Z,1004.17
2022-12-24T08:07:39.683Z,1004.19
2022-12-24T08:08:39.646Z,1004.21
2022-12-24T08:09:39.701Z,1004.26
2022-12-24T08:10:39.628Z,1004.31
2022-12-24T08:11:39.606Z,1004.34
2022-12-24T08:12:39.606Z,1004.36
2022-12-24T08:13:39.595Z,1004.35
2022-12-24T08:14:39.590Z,1004.35
2022-12-24T08:15:39.559Z,1004.34
2022-12-24T08:16:39.566Z,1004.35
2022-12-24T08:17:39.540Z,1004.37
2022-12-24T08:18:39.543Z,1004.38
2022-12-24T08:19:39.541Z,1004.39
2022-12-24T08:20:39.535Z,1004.40
2022-12-24T08:21:39.516Z,1004.39
2022-12-24T08:22:39.524Z,1004.38
2022-12-24T08:23:39.490Z,1004.37
2022-12-24T08:24:39.484Z,1004.40
2022-12-24T08:25:39.489Z,1004.42
2022-12-24T08:26:39.535Z,1004.43
2022-12-24T08:27:39.459Z,1004.42
2022-12-24T08:28:39.453Z,1004.41
2022-12-24T08:29:39.427Z,1004.41
2022-12-24T08:30:39.437Z,1004.42
2022-12-24T08:31:39.451Z,1004.42
2022-12-24T08:32:39.392Z,1004.42
2022-12-24T08:33:39.385Z,1004.43
2022-12-24T08:34:39.379Z,1004.44
2022-12-24T08:35:39.387Z,1004.45
2022-12-24T08:36:39.362Z,1004.46
2022-12-24T08:37:39.351Z,1004.48
2022-12-24T08:38:39.356Z,1004.50
2022-12-24T08:39:39.325Z,1004.51
2022-12-24T08:40:39.319Z,1004.55
2022-12-24T08:41:39.310Z,1004.57
2022-12-24T08:42:39.408Z,1004.58
2022-12-24T08:43:39.315Z,1004.58
2022-12-24T08:44:39.295Z,1004.58
2022-12-24T08:45:40.963Z,1004.59
2022-12-24T08:46:39.323Z,1004.61
2022-12-24T08:47:39.235Z,1004.62
2022-12-24T08:48:39.276Z,1004.63
2022-12-24T08:49:39.231Z,1004.63
2022-12-24T08:50:39.241Z,1004.62
2022-12-24T08:51:39.257Z,1004.62
2022-12-24T08:52:39.195Z,1004.62
2022-12-24T08:53:39.221Z,1004.63
2022-12-24T08:54:39.178Z,1004.63
2022-12-24T08:55:39.169Z,1004.62
2022-12-24T08:56:39.155Z,1004.62
2022-12-24T08:57:39.155Z,1004.65
2022-12-24T08:58:39.154Z,1004.68
2022-12-24T08:59:39.118Z,1004.71
2022-12-24T09:00:39.201Z,1004.74
2022-12-24T09:01:39.236Z,1004.77
2022-12-24T09:02:39.180Z,1004.80
2022-12-24T09:03:39.183Z,1004.84
2022-12-24T09:04:39.090Z,1004.87
2022-12-24T09:05:39.081Z,1004.89
2022-12-24T09:06:39.075Z,1004.91
2022-12-24T09:07:39.043Z,1004.92
2022-12-24T09:08:39.069Z,1004.91
2022-12-24T09:09:39.018Z,1004.90
2022-12-24T09:10:39.015Z,1004.93
2022-12-24T09:11:38.998Z,1004.95
2022-12-24T09:12:39.000Z,1004.96
2022-12-24T09:13:39.000Z,1004.96
2022-12-24T09:14:38.981Z,1004.98
2022-12-24T09:15:38.993Z,1005.01
2022-12-24T09:16:39.025Z,1005.02
2022-12-24T09:17:38.965Z,1005.00
2022-12-24T09:18:38.969Z,1004.94
2022-12-24T09:19:38.924Z,1004.93
2022-12-24T09:20:44.265Z,1004.95
2022-12-24T09:21:38.899Z,1004.97
2022-12-24T09:22:38.911Z,1004.97
2022-12-24T09:23:38.879Z,1004.97
2022-12-24T09:24:38.888Z,1004.97
2022-12-24T09:25:38.924Z,1004.99
2022-12-24T09:26:38.866Z,1004.99
2022-12-24T09:27:38.841Z,1004.99
2022-12-24T09:28:38.832Z,1004.99
2022-12-24T09:29:38.843Z,1004.98
2022-12-24T09:30:38.808Z,1004.99
2022-12-24T09:31:38.884Z,1005.01
2022-12-24T09:32:38.802Z,1005.04
2022-12-24T09:33:38.775Z,1005.07
2022-12-24T09:34:38.826Z,1005.10
2022-12-24T09:35:38.764Z,1005.13
2022-12-24T09:36:38.755Z,1005.16
2022-12-24T09:37:38.759Z,1005.15
2022-12-24T09:38:38.752Z,1005.15
2022-12-24T09:39:38.731Z,1005.17
2022-12-24T09:40:38.712Z,1005.20
2022-12-24T09:41:38.703Z,1005.21
2022-12-24T09:42:38.725Z,1005.23
2022-12-24T09:43:38.678Z,1005.21
2022-12-24T09:44:38.671Z,1005.20
2022-12-24T09:45:38.722Z,1005.22
2022-12-24T09:46:38.656Z,1005.21
2022-12-24T09:47:38.642Z,1005.20
2022-12-24T09:48:38.628Z,1005.20
2022-12-24T09:49:38.633Z,1005.18
2022-12-24T09:50:38.637Z,1005.18
2022-12-24T09:51:38.594Z,1005.21
2022-12-24T09:52:38.622Z,1005.23
2022-12-24T09:53:38.631Z,1005.24
2022-12-24T09:54:38.567Z,1005.21
2022-12-24T09:55:38.577Z,1005.17
2022-12-24T09:56:38.560Z,1005.15
2022-12-24T09:57:38.550Z,1005.16
2022-12-24T09:58:38.573Z,1005.19
2022-12-24T09:59:38.549Z,1005.20
2022-12-24T10:00:38.522Z,1005.19
2022-12-24T10:01:38.716Z,1005.19
2022-12-24T10:02:38.650Z,1005.24
2022-12-24T10:03:38.538Z,1005.30
2022-12-24T10:04:38.468Z,1005.32
2022-12-24T10:05:38.473Z,1005.34
2022-12-24T10:06:38.477Z,1005.36
2022-12-24T10:07:38.432Z,1005.38
2022-12-24T10:08:38.485Z,1005.41
2022-12-24T10:09:38.419Z,1005.46
2022-12-24T10:10:38.407Z,1005.48
2022-12-24T10:11:38.419Z,1005.50
2022-12-24T10:12:38.399Z,1005.51
2022-12-24T10:13:38.384Z,1005.53
2022-12-24T10:14:38.357Z,1005.53
2022-12-24T10:15:38.352Z,1005.56
2022-12-24T10:16:38.462Z,1005.60
2022-12-24T10:17:38.321Z,1005.64
2022-12-24T10:18:38.320Z,1005.66
2022-12-24T10:19:38.308Z,1005.65
2022-12-24T10:20:38.297Z,1005.66
2022-12-24T10:21:38.318Z,1005.65
2022-12-24T10:22:38.285Z,1005.62
2022-12-24T10:23:38.326Z,1005.61
2022-12-24T10:24:38.273Z,1005.60
2022-12-24T10:25:38.260Z,1005.60
2022-12-24T10:26:38.293Z,1005.60
2022-12-24T10:27:38.228Z,1005.60
2022-12-24T10:28:38.235Z,1005.59
2022-12-24T10:29:38.205Z,1005.58
2022-12-24T10:30:38.299Z,1005.58
2022-12-24T10:31:38.210Z,1005.56
2022-12-24T10:32:38.203Z,1005.55
2022-12-24T10:33:38.172Z,1005.55
2022-12-24T10:34:38.181Z,1005.57
2022-12-24T10:35:38.145Z,1005.55
2022-12-24T10:36:38.177Z,1005.53
2022-12-24T10:37:38.164Z,1005.52
2022-12-24T10:38:38.126Z,1005.53
2022-12-24T10:39:38.122Z,1005.60
2022-12-24T10:40:38.126Z,1005.64
2022-12-24T10:41:38.132Z,1005.66
2022-12-24T10:42:38.082Z,1005.65
2022-12-24T10:43:38.077Z,1005.62
2022-12-24T10:44:38.096Z,1005.63
2022-12-24T10:45:38.051Z,1005.63
2022-12-24T10:46:38.137Z,1005.65
2022-12-24T10:47:38.060Z,1005.66
2022-12-24T10:48:38.029Z,1005.67
2022-12-24T10:49:38.004Z,1005.66
2022-12-24T10:50:37.993Z,1005.64
2022-12-24T10:51:37.985Z,1005.65
2022-12-24T10:52:38.005Z,1005.66
2022-12-24T10:53:37.984Z,1005.67
2022-12-24T10:54:37.989Z,1005.66
2022-12-24T10:55:37.941Z,1005.66
2022-12-24T10:56:37.932Z,1005.63
2022-12-24T10:57:37.931Z,1005.61
2022-12-24T10:58:37.951Z,1005.61
2022-12-24T10:59:37.898Z,1005.60
2022-12-24T11:00:37.917Z,1005.62
2022-12-24T11:01:37.997Z,1005.66
2022-12-24T11:02:38.118Z,1005.66
2022-12-24T11:03:37.945Z,1005.66
2022-12-24T11:04:37.854Z,1005.65
2022-12-24T11:05:37.838Z,1005.65
2022-12-24T11:06:37.841Z,1005.67
2022-12-24T11:07:37.817Z,1005.68
2022-12-24T11:08:37.839Z,1005.70
2022-12-24T11:09:37.809Z,1005.69
2022-12-24T11:10:37.832Z,1005.69
2022-12-24T11:11:37.781Z,1005.71
2022-12-24T11:12:37.796Z,1005.71
2022-12-24T11:13:39.122Z,1005.71
2022-12-24T11:14:37.823Z,1005.69
2022-12-24T11:15:37.808Z,1005.67
2022-12-24T11:16:37.742Z,1005.66
2022-12-24T11:17:37.732Z,1005.67
2022-12-24T11:18:37.721Z,1005.74
2022-12-24T11:19:37.736Z,1005.77
2022-12-24T11:20:37.733Z,1005.79
2022-12-24T11:21:37.685Z,1005.83
2022-12-24T11:22:37.677Z,1005.84
2022-12-24T11:23:37.669Z,1005.82
2022-12-24T11:24:37.684Z,1005.81
2022-12-24T11:25:37.640Z,1005.83
2022-12-24T11:26:37.637Z,1005.82
2022-12-24T11:27:37.622Z,1005.83
2022-12-24T11:28:37.628Z,1005.78
2022-12-24T11:29:37.634Z,1005.78
2022-12-24T11:30:37.630Z,1005.76
2022-12-24T11:31:37.866Z,1005.73
2022-12-24T11:32:37.584Z,1005.74
2022-12-24T11:33:37.584Z,1005.76
2022-12-24T11:34:37.557Z,1005.75
2022-12-24T11:35:37.561Z,1005.74
2022-12-24T11:36:37.531Z,1005.76
2022-12-24T11:37:37.522Z,1005.79
2022-12-24T11:38:37.536Z,1005.80
2022-12-24T11:39:37.525Z,1005.81
2022-12-24T11:40:37.497Z,1005.79
2022-12-24T11:41:37.520Z,1005.76
2022-12-24T11:42:37.555Z,1005.76
2022-12-24T11:43:37.496Z,1005.75
2022-12-24T11:44:37.465Z,1005.77
2022-12-24T11:45:37.447Z,1005.74
2022-12-24T11:46:37.574Z,1005.70
2022-12-24T11:47:37.434Z,1005.70
2022-12-24T11:48:37.421Z,1005.73
2022-12-24T11:49:37.413Z,1005.73
2022-12-24T11:50:37.419Z,1005.71
2022-12-24T11:51:37.372Z,1005.72
2022-12-24T11:52:37.420Z,1005.72
2022-12-24T11:53:37.358Z,1005.72
2022-12-24T11:54:37.388Z,1005.70
2022-12-24T11:55:37.344Z,1005.70
2022-12-24T11:56:37.332Z,1005.68
2022-12-24T11:57:37.347Z,1005.65
2022-12-24T11:58:37.351Z,1005.66
2022-12-24T11:59:37.295Z,1005.66
2022-12-24T12:00:37.356Z,1005.63
2022-12-24T12:01:37.497Z,1005.62
2022-12-24T12:02:37.355Z,1005.62
2022-12-24T12:03:37.322Z,1005.63
2022-12-24T12:04:37.248Z,1005.64
2022-12-24T12:05:37.237Z,1005.62
2022-12-24T12:06:37.288Z,1005.59
2022-12-24T12:07:37.263Z,1005.58